Huvudsida
METAR-TAF:

METAR-TAF

Flygplatser :

Ponta Delgada, Azorerna, Portugal

latitud: 37-44N, longitud: 025-42W, höjd: 71 m

Aktuellt väderrapport

Denna rapport gjordes för 32 minuter sedan, klockan 23:30 UTC
Vind 6 kt från ost/sydost
Temperatur 14°C
Fuktighet 82%
Tryck 1033 hPa
Sikt 10 km eller mer
Få moln på en höjd av 1600 ft

METAR: LPPD 252330Z 11006KT 9999 FEW016 14/11 Q1033

Tid: 23:02 (00:02 UTC)

Väderprognos

Denna rapport gjordes för 1 timme och 2 minuter sedan, klockan 23:00 UTC
Prognos gäller från 26 kl. 00 UTC till 26 kl. 24 UTC
Vind 8 kt från ost/sydost
Sikt 10 km eller mer
Få moln på en höjd av 1800 ft
Temporärt
från 26 kl. 00 UTC till 26 kl. 24 UTC
Spridda moln på en höjd av 1200 ft
Brutna moln på en höjd av 2500 ft
Blir
från 26 kl. 08 UTC till 26 kl. 10 UTC
Vind 12 kt från syd/sydost

TAF: LPPD 252300Z 2600/2624 12008KT 9999 FEW018 TEMPO 2600/2624 SCT012 BKN025 BECMG 2608/2610 16012KT

Aktuella väderrapporter och prognoser från 4000 flygplatser (METAR- och TAF-rapporter).

De tillgängliga stationerna syns som gula och röda prickar på kartan.

För musen över prickarna för att se namnen på stationerna.

Klicka sedan för att få väderrapporter och prognoser.

För att ändra kartan: Klicka på de gröna knapparna med ett svart kors på för att zooma in; den gröna knappen med ett streck på för att zooma ut; eller på de gröna pilarna för angränsande kartor.


METAR-TAF: